sensor_id;sensor_type;location;lat;lon;timestamp;temperature;humidity
16513;DHT22;8369;48.030;11.598;2022-08-18T00:01:17;22.10;99.00
16513;DHT22;8369;48.030;11.598;2022-08-18T00:03:44;22.10;99.40
16513;DHT22;8369;48.030;11.598;2022-08-18T00:06:10;22.10;98.80
16513;DHT22;8369;48.030;11.598;2022-08-18T00:08:36;22.00;99.60
16513;DHT22;8369;48.030;11.598;2022-08-18T00:11:02;21.90;99.70
16513;DHT22;8369;48.030;11.598;2022-08-18T00:13:28;21.90;99.50
16513;DHT22;8369;48.030;11.598;2022-08-18T00:15:53;21.90;99.90
16513;DHT22;8369;48.030;11.598;2022-08-18T00:18:19;21.80;99.90
16513;DHT22;8369;48.030;11.598;2022-08-18T00:20:45;21.80;99.90
16513;DHT22;8369;48.030;11.598;2022-08-18T00:23:11;21.80;99.90
16513;DHT22;8369;48.030;11.598;2022-08-18T00:25:38;21.70;99.90
16513;DHT22;8369;48.030;11.598;2022-08-18T00:28:04;21.70;99.90
16513;DHT22;8369;48.030;11.598;2022-08-18T00:30:30;21.70;99.90
16513;DHT22;8369;48.030;11.598;2022-08-18T00:32:57;21.80;99.90
16513;DHT22;8369;48.030;11.598;2022-08-18T00:35:26;21.80;99.90
16513;DHT22;8369;48.030;11.598;2022-08-18T00:37:55;21.80;99.90
16513;DHT22;8369;48.030;11.598;2022-08-18T00:40:25;21.80;99.90
16513;DHT22;8369;48.030;11.598;2022-08-18T00:42:58;21.80;99.90
16513;DHT22;8369;48.030;11.598;2022-08-18T00:45:29;21.70;99.90
16513;DHT22;8369;48.030;11.598;2022-08-18T00:47:58;21.70;99.90
16513;DHT22;8369;48.030;11.598;2022-08-18T00:50:32;21.70;99.90
16513;DHT22;8369;48.030;11.598;2022-08-18T00:53:02;21.70;99.90
16513;DHT22;8369;48.030;11.598;2022-08-18T00:55:31;21.70;99.90
16513;DHT22;8369;48.030;11.598;2022-08-18T00:58:09;21.70;99.90
16513;DHT22;8369;48.030;11.598;2022-08-18T01:00:36;21.70;99.90
16513;DHT22;8369;48.030;11.598;2022-08-18T01:03:06;21.70;99.90
16513;DHT22;8369;48.030;11.598;2022-08-18T01:05:41;21.70;99.90
16513;DHT22;8369;48.030;11.598;2022-08-18T01:08:11;21.70;99.90
16513;DHT22;8369;48.030;11.598;2022-08-18T01:10:39;21.70;99.90
16513;DHT22;8369;48.030;11.598;2022-08-18T01:13:05;21.70;99.90
16513;DHT22;8369;48.030;11.598;2022-08-18T01:15:31;21.70;99.90
16513;DHT22;8369;48.030;11.598;2022-08-18T01:18:02;21.60;99.90
16513;DHT22;8369;48.030;11.598;2022-08-18T01:21:19;21.60;99.90
16513;DHT22;8369;48.030;11.598;2022-08-18T01:24:07;21.70;99.90
16513;DHT22;8369;48.030;11.598;2022-08-18T01:26:36;21.60;99.90
16513;DHT22;8369;48.030;11.598;2022-08-18T01:29:05;21.60;99.90
16513;DHT22;8369;48.030;11.598;2022-08-18T01:31:39;21.50;99.90
16513;DHT22;8369;48.030;11.598;2022-08-18T01:34:12;21.50;99.90
16513;DHT22;8369;48.030;11.598;2022-08-18T01:36:39;21.50;99.90
16513;DHT22;8369;48.030;11.598;2022-08-18T01:39:09;21.40;99.90
16513;DHT22;8369;48.030;11.598;2022-08-18T01:41:37;21.30;99.90
16513;DHT22;8369;48.030;11.598;2022-08-18T01:44:03;21.20;99.90
16513;DHT22;8369;48.030;11.598;2022-08-18T01:46:32;21.20;99.90
16513;DHT22;8369;48.030;11.598;2022-08-18T01:48:59;21.10;99.90
16513;DHT22;8369;48.030;11.598;2022-08-18T01:51:29;21.20;99.90
16513;DHT22;8369;48.030;11.598;2022-08-18T01:53:57;21.10;99.90
16513;DHT22;8369;48.030;11.598;2022-08-18T01:56:26;21.10;99.90
16513;DHT22;8369;48.030;11.598;2022-08-18T01:58:54;21.10;99.90
16513;DHT22;8369;48.030;11.598;2022-08-18T02:01:23;21.00;99.90
16513;DHT22;8369;48.030;11.598;2022-08-18T02:03:55;21.00;99.90
16513;DHT22;8369;48.030;11.598;2022-08-18T02:06:24;21.00;99.90
16513;DHT22;8369;48.030;11.598;2022-08-18T02:08:50;21.00;99.90
16513;DHT22;8369;48.030;11.598;2022-08-18T02:11:16;21.00;99.90
16513;DHT22;8369;48.030;11.598;2022-08-18T02:13:42;21.00;99.90
16513;DHT22;8369;48.030;11.598;2022-08-18T02:16:10;21.00;99.90
16513;DHT22;8369;48.030;11.598;2022-08-18T02:18:36;20.90;99.90
16513;DHT22;8369;48.030;11.598;2022-08-18T02:21:12;20.90;99.90
16513;DHT22;8369;48.030;11.598;2022-08-18T02:23:40;20.90;99.90
16513;DHT22;8369;48.030;11.598;2022-08-18T02:26:10;20.90;99.90
16513;DHT22;8369;48.030;11.598;2022-08-18T02:28:36;20.80;99.90
16513;DHT22;8369;48.030;11.598;2022-08-18T02:31:13;20.80;99.90
16513;DHT22;8369;48.030;11.598;2022-08-18T02:33:41;20.70;99.90
16513;DHT22;8369;48.030;11.598;2022-08-18T02:36:08;20.70;99.90
16513;DHT22;8369;48.030;11.598;2022-08-18T02:38:35;20.70;99.90
16513;DHT22;8369;48.030;11.598;2022-08-18T02:41:03;20.70;99.90
16513;DHT22;8369;48.030;11.598;2022-08-18T02:43:31;20.60;99.90
16513;DHT22;8369;48.030;11.598;2022-08-18T02:45:57;20.60;99.90
16513;DHT22;8369;48.030;11.598;2022-08-18T02:48:23;20.60;99.90
16513;DHT22;8369;48.030;11.598;2022-08-18T02:51:15;20.60;99.90
16513;DHT22;8369;48.030;11.598;2022-08-18T02:53:43;20.50;99.90
16513;DHT22;8369;48.030;11.598;2022-08-18T02:56:10;20.50;99.90
16513;DHT22;8369;48.030;11.598;2022-08-18T02:58:45;20.50;99.90
16513;DHT22;8369;48.030;11.598;2022-08-18T03:01:11;20.50;99.90
16513;DHT22;8369;48.030;11.598;2022-08-18T03:03:37;20.50;99.90
16513;DHT22;8369;48.030;11.598;2022-08-18T03:06:04;20.50;99.90
16513;DHT22;8369;48.030;11.598;2022-08-18T03:08:30;20.40;99.90
16513;DHT22;8369;48.030;11.598;2022-08-18T03:10:59;20.40;99.90
16513;DHT22;8369;48.030;11.598;2022-08-18T03:13:25;20.40;99.90
16513;DHT22;8369;48.030;11.598;2022-08-18T03:15:55;20.30;99.90
16513;DHT22;8369;48.030;11.598;2022-08-18T03:18:21;20.30;99.90
16513;DHT22;8369;48.030;11.598;2022-08-18T03:20:49;20.30;99.90
16513;DHT22;8369;48.030;11.598;2022-08-18T03:23:15;20.30;99.90
16513;DHT22;8369;48.030;11.598;2022-08-18T03:25:46;20.20;99.90
16513;DHT22;8369;48.030;11.598;2022-08-18T03:28:14;20.20;99.90
16513;DHT22;8369;48.030;11.598;2022-08-18T03:30:40;20.20;99.90
16513;DHT22;8369;48.030;11.598;2022-08-18T03:33:06;20.20;99.90
16513;DHT22;8369;48.030;11.598;2022-08-18T03:35:34;20.10;99.90
16513;DHT22;8369;48.030;11.598;2022-08-18T03:38:02;20.10;99.90
16513;DHT22;8369;48.030;11.598;2022-08-18T03:40:28;20.00;99.90
16513;DHT22;8369;48.030;11.598;2022-08-18T03:42:54;20.00;99.90
16513;DHT22;8369;48.030;11.598;2022-08-18T03:45:20;20.00;99.90
16513;DHT22;8369;48.030;11.598;2022-08-18T03:47:47;19.90;99.90
16513;DHT22;8369;48.030;11.598;2022-08-18T03:50:16;19.90;99.90
16513;DHT22;8369;48.030;11.598;2022-08-18T03:52:44;19.90;99.90
16513;DHT22;8369;48.030;11.598;2022-08-18T03:55:14;19.80;99.90
16513;DHT22;8369;48.030;11.598;2022-08-18T03:57:41;19.70;99.90
16513;DHT22;8369;48.030;11.598;2022-08-18T04:00:08;19.70;99.90
16513;DHT22;8369;48.030;11.598;2022-08-18T04:02:37;19.70;99.90
16513;DHT22;8369;48.030;11.598;2022-08-18T04:05:07;19.70;99.90
16513;DHT22;8369;48.030;11.598;2022-08-18T04:07:38;19.70;99.90
16513;DHT22;8369;48.030;11.598;2022-08-18T04:10:04;19.60;99.90
16513;DHT22;8369;48.030;11.598;2022-08-18T04:12:33;19.60;99.90
16513;DHT22;8369;48.030;11.598;2022-08-18T04:15:01;19.60;99.90
16513;DHT22;8369;48.030;11.598;2022-08-18T04:17:28;19.60;99.90
16513;DHT22;8369;48.030;11.598;2022-08-18T04:19:54;19.60;99.90
16513;DHT22;8369;48.030;11.598;2022-08-18T04:22:21;19.50;99.90
16513;DHT22;8369;48.030;11.598;2022-08-18T04:24:48;19.50;99.90
16513;DHT22;8369;48.030;11.598;2022-08-18T04:27:19;19.50;99.90
16513;DHT22;8369;48.030;11.598;2022-08-18T04:29:48;19.50;99.90
16513;DHT22;8369;48.030;11.598;2022-08-18T04:32:15;19.50;99.90
16513;DHT22;8369;48.030;11.598;2022-08-18T04:34:40;19.40;99.90
16513;DHT22;8369;48.030;11.598;2022-08-18T04:37:07;19.40;99.90
16513;DHT22;8369;48.030;11.598;2022-08-18T04:39:34;19.40;99.90
16513;DHT22;8369;48.030;11.598;2022-08-18T04:42:00;19.40;99.90
16513;DHT22;8369;48.030;11.598;2022-08-18T04:44:28;19.40;99.90
16513;DHT22;8369;48.030;11.598;2022-08-18T04:46:54;19.40;99.90
16513;DHT22;8369;48.030;11.598;2022-08-18T04:49:24;19.40;99.90
16513;DHT22;8369;48.030;11.598;2022-08-18T04:51:54;19.40;99.90
16513;DHT22;8369;48.030;11.598;2022-08-18T04:54:39;19.40;99.90
16513;DHT22;8369;48.030;11.598;2022-08-18T04:57:16;19.40;99.90
16513;DHT22;8369;48.030;11.598;2022-08-18T04:59:45;19.40;99.90
16513;DHT22;8369;48.030;11.598;2022-08-18T05:02:15;19.40;99.90
16513;DHT22;8369;48.030;11.598;2022-08-18T05:04:43;19.40;99.90
16513;DHT22;8369;48.030;11.598;2022-08-18T05:07:16;19.40;99.90
16513;DHT22;8369;48.030;11.598;2022-08-18T05:09:43;19.40;99.90
16513;DHT22;8369;48.030;11.598;2022-08-18T05:12:11;19.50;99.90
16513;DHT22;8369;48.030;11.598;2022-08-18T05:14:44;19.50;99.90
16513;DHT22;8369;48.030;11.598;2022-08-18T05:17:10;19.50;99.90
16513;DHT22;8369;48.030;11.598;2022-08-18T05:19:37;19.50;99.90
16513;DHT22;8369;48.030;11.598;2022-08-18T05:22:03;19.50;99.90
16513;DHT22;8369;48.030;11.598;2022-08-18T05:24:32;19.50;99.90
16513;DHT22;8369;48.030;11.598;2022-08-18T05:27:00;19.60;99.90
16513;DHT22;8369;48.030;11.598;2022-08-18T05:29:26;19.60;99.90
16513;DHT22;8369;48.030;11.598;2022-08-18T05:31:52;19.70;99.90
16513;DHT22;8369;48.030;11.598;2022-08-18T05:34:21;19.70;99.90
16513;DHT22;8369;48.030;11.598;2022-08-18T05:42:07;20.00;99.90
16513;DHT22;8369;48.030;11.598;2022-08-18T05:44:45;20.10;99.90
16513;DHT22;8369;48.030;11.598;2022-08-18T05:47:12;20.10;99.90
16513;DHT22;8369;48.030;11.598;2022-08-18T05:49:39;20.20;99.90
16513;DHT22;8369;48.030;11.598;2022-08-18T05:52:12;20.30;99.90
16513;DHT22;8369;48.030;11.598;2022-08-18T05:54:44;20.30;99.90
16513;DHT22;8369;48.030;11.598;2022-08-18T05:57:41;20.30;99.90
16513;DHT22;8369;48.030;11.598;2022-08-18T06:00:09;20.40;99.90
16513;DHT22;8369;48.030;11.598;2022-08-18T06:05:10;20.50;99.90
16513;DHT22;8369;48.030;11.598;2022-08-18T06:07:44;20.60;99.90
16513;DHT22;8369;48.030;11.598;2022-08-18T06:10:12;20.60;99.90
16513;DHT22;8369;48.030;11.598;2022-08-18T06:12:47;20.60;99.90
16513;DHT22;8369;48.030;11.598;2022-08-18T06:15:28;20.70;99.90
16513;DHT22;8369;48.030;11.598;2022-08-18T06:23:41;20.90;99.90
16513;DHT22;8369;48.030;11.598;2022-08-18T06:26:16;20.80;99.90
16513;DHT22;8369;48.030;11.598;2022-08-18T06:35:03;20.90;99.90
16513;DHT22;8369;48.030;11.598;2022-08-18T06:37:58;21.00;99.90
16513;DHT22;8369;48.030;11.598;2022-08-18T06:41:05;21.00;99.90
16513;DHT22;8369;48.030;11.598;2022-08-18T06:43:35;21.00;99.90
16513;DHT22;8369;48.030;11.598;2022-08-18T06:46:09;21.00;99.90
16513;DHT22;8369;48.030;11.598;2022-08-18T06:48:50;21.00;99.90
16513;DHT22;8369;48.030;11.598;2022-08-18T06:51:20;21.00;99.90
16513;DHT22;8369;48.030;11.598;2022-08-18T06:54:05;21.10;99.90
16513;DHT22;8369;48.030;11.598;2022-08-18T06:56:46;21.10;99.90
16513;DHT22;8369;48.030;11.598;2022-08-18T07:01:47;21.10;99.90
16513;DHT22;8369;48.030;11.598;2022-08-18T07:07:13;21.30;99.90
16513;DHT22;8369;48.030;11.598;2022-08-18T07:09:40;21.30;99.90
16513;DHT22;8369;48.030;11.598;2022-08-18T07:12:09;21.40;99.90
16513;DHT22;8369;48.030;11.598;2022-08-18T07:14:45;21.40;99.90
16513;DHT22;8369;48.030;11.598;2022-08-18T07:17:18;21.50;99.90
16513;DHT22;8369;48.030;11.598;2022-08-18T07:19:55;21.60;99.90
16513;DHT22;8369;48.030;11.598;2022-08-18T07:22:21;21.70;99.90
16513;DHT22;8369;48.030;11.598;2022-08-18T07:24:49;21.70;99.90
16513;DHT22;8369;48.030;11.598;2022-08-18T07:27:21;21.70;99.90
16513;DHT22;8369;48.030;11.598;2022-08-18T07:30:34;21.80;99.90
16513;DHT22;8369;48.030;11.598;2022-08-18T07:35:49;21.90;99.90
16513;DHT22;8369;48.030;11.598;2022-08-18T07:38:27;22.00;99.90
16513;DHT22;8369;48.030;11.598;2022-08-18T07:46:25;22.30;99.60
16513;DHT22;8369;48.030;11.598;2022-08-18T07:48:55;22.40;99.30
16513;DHT22;8369;48.030;11.598;2022-08-18T07:51:31;22.40;99.00
16513;DHT22;8369;48.030;11.598;2022-08-18T07:54:18;22.50;98.30
16513;DHT22;8369;48.030;11.598;2022-08-18T08:02:52;22.60;97.70
16513;DHT22;8369;48.030;11.598;2022-08-18T08:16:33;23.20;97.20
16513;DHT22;8369;48.030;11.598;2022-08-18T08:35:20;24.00;93.30
16513;DHT22;8369;48.030;11.598;2022-08-18T08:37:56;24.10;93.10
16513;DHT22;8369;48.030;11.598;2022-08-18T08:40:31;24.00;92.20
16513;DHT22;8369;48.030;11.598;2022-08-18T08:43:15;24.10;92.90
16513;DHT22;8369;48.030;11.598;2022-08-18T08:45:59;24.20;93.00
16513;DHT22;8369;48.030;11.598;2022-08-18T08:48:33;24.30;93.00
16513;DHT22;8369;48.030;11.598;2022-08-18T08:53:55;24.50;92.20
16513;DHT22;8369;48.030;11.598;2022-08-18T08:56:29;24.70;91.40
16513;DHT22;8369;48.030;11.598;2022-08-18T08:59:04;24.80;90.90
16513;DHT22;8369;48.030;11.598;2022-08-18T09:04:44;24.80;90.60
16513;DHT22;8369;48.030;11.598;2022-08-18T09:18:33;25.00;90.30
16513;DHT22;8369;48.030;11.598;2022-08-18T09:21:46;25.10;89.80
16513;DHT22;8369;48.030;11.598;2022-08-18T09:24:25;25.20;87.20
16513;DHT22;8369;48.030;11.598;2022-08-18T09:27:13;25.30;86.60
16513;DHT22;8369;48.030;11.598;2022-08-18T09:29:59;25.40;85.60
16513;DHT22;8369;48.030;11.598;2022-08-18T09:38:09;25.80;85.90
16513;DHT22;8369;48.030;11.598;2022-08-18T09:41:07;26.00;84.50
16513;DHT22;8369;48.030;11.598;2022-08-18T09:44:05;25.90;83.90
16513;DHT22;8369;48.030;11.598;2022-08-18T09:51:53;25.70;84.10
16513;DHT22;8369;48.030;11.598;2022-08-18T09:54:28;25.70;83.90
16513;DHT22;8369;48.030;11.598;2022-08-18T09:57:04;25.70;83.70
16513;DHT22;8369;48.030;11.598;2022-08-18T10:18:40;25.80;83.00
16513;DHT22;8369;48.030;11.598;2022-08-18T10:28:59;26.10;81.90
16513;DHT22;8369;48.030;11.598;2022-08-18T10:31:29;26.10;81.30
16513;DHT22;8369;48.030;11.598;2022-08-18T10:34:07;26.00;81.50
16513;DHT22;8369;48.030;11.598;2022-08-18T10:36:59;26.00;81.30
16513;DHT22;8369;48.030;11.598;2022-08-18T10:44:50;26.30;80.30
16513;DHT22;8369;48.030;11.598;2022-08-18T10:47:29;26.30;80.50
16513;DHT22;8369;48.030;11.598;2022-08-18T10:50:06;26.40;80.80
16513;DHT22;8369;48.030;11.598;2022-08-18T10:55:35;26.60;79.90
16513;DHT22;8369;48.030;11.598;2022-08-18T10:58:32;26.70;78.70
16513;DHT22;8369;48.030;11.598;2022-08-18T11:04:07;26.90;77.30
16513;DHT22;8369;48.030;11.598;2022-08-18T11:06:42;26.90;77.90
16513;DHT22;8369;48.030;11.598;2022-08-18T11:09:09;27.00;76.40
16513;DHT22;8369;48.030;11.598;2022-08-18T11:11:43;27.00;76.20
16513;DHT22;8369;48.030;11.598;2022-08-18T11:19:50;27.00;75.00
16513;DHT22;8369;48.030;11.598;2022-08-18T11:22:25;27.00;75.80
16513;DHT22;8369;48.030;11.598;2022-08-18T11:24:52;27.00;76.10
16513;DHT22;8369;48.030;11.598;2022-08-18T11:27:19;27.00;75.00
16513;DHT22;8369;48.030;11.598;2022-08-18T11:29:45;27.00;75.80
16513;DHT22;8369;48.030;11.598;2022-08-18T11:32:27;27.00;75.20
16513;DHT22;8369;48.030;11.598;2022-08-18T11:40:40;27.10;74.70
16513;DHT22;8369;48.030;11.598;2022-08-18T11:43:22;27.10;74.10
16513;DHT22;8369;48.030;11.598;2022-08-18T11:45:53;26.90;74.40
16513;DHT22;8369;48.030;11.598;2022-08-18T11:48:21;27.00;75.20
16513;DHT22;8369;48.030;11.598;2022-08-18T11:59:00;26.90;74.70
16513;DHT22;8369;48.030;11.598;2022-08-18T12:06:57;27.00;75.60
16513;DHT22;8369;48.030;11.598;2022-08-18T12:17:24;27.10;76.20
16513;DHT22;8369;48.030;11.598;2022-08-18T12:19:51;27.10;75.80
16513;DHT22;8369;48.030;11.598;2022-08-18T12:22:23;27.10;75.60
16513;DHT22;8369;48.030;11.598;2022-08-18T12:24:50;27.10;75.90
16513;DHT22;8369;48.030;11.598;2022-08-18T12:27:19;27.10;76.70
16513;DHT22;8369;48.030;11.598;2022-08-18T12:29:54;27.00;76.40
16513;DHT22;8369;48.030;11.598;2022-08-18T12:32:22;26.90;76.40
16513;DHT22;8369;48.030;11.598;2022-08-18T12:34:51;26.80;77.00
16513;DHT22;8369;48.030;11.598;2022-08-18T12:37:22;26.70;77.80
16513;DHT22;8369;48.030;11.598;2022-08-18T12:39:50;26.70;77.10
16513;DHT22;8369;48.030;11.598;2022-08-18T12:42:17;26.70;77.60
16513;DHT22;8369;48.030;11.598;2022-08-18T12:44:43;26.70;77.40
16513;DHT22;8369;48.030;11.598;2022-08-18T12:47:18;26.60;77.60
16513;DHT22;8369;48.030;11.598;2022-08-18T12:49:45;26.60;77.80
16513;DHT22;8369;48.030;11.598;2022-08-18T12:52:11;26.70;77.80
16513;DHT22;8369;48.030;11.598;2022-08-18T12:54:37;26.70;77.40
16513;DHT22;8369;48.030;11.598;2022-08-18T12:57:14;26.70;77.40
16513;DHT22;8369;48.030;11.598;2022-08-18T12:59:42;26.70;77.90
16513;DHT22;8369;48.030;11.598;2022-08-18T13:02:08;26.70;78.40
16513;DHT22;8369;48.030;11.598;2022-08-18T13:04:36;26.80;78.20
16513;DHT22;8369;48.030;11.598;2022-08-18T13:07:03;26.80;77.30
16513;DHT22;8369;48.030;11.598;2022-08-18T13:09:31;26.80;77.60
16513;DHT22;8369;48.030;11.598;2022-08-18T13:11:58;26.70;78.20
16513;DHT22;8369;48.030;11.598;2022-08-18T13:14:24;26.60;78.50
16513;DHT22;8369;48.030;11.598;2022-08-18T13:16:50;26.70;78.70
16513;DHT22;8369;48.030;11.598;2022-08-18T13:19:17;26.60;78.50
16513;DHT22;8369;48.030;11.598;2022-08-18T13:21:43;26.60;79.00
16513;DHT22;8369;48.030;11.598;2022-08-18T13:24:14;26.60;78.80
16513;DHT22;8369;48.030;11.598;2022-08-18T13:26:43;26.50;79.30
16513;DHT22;8369;48.030;11.598;2022-08-18T13:29:09;26.50;79.60
16513;DHT22;8369;48.030;11.598;2022-08-18T13:31:36;26.40;79.40
16513;DHT22;8369;48.030;11.598;2022-08-18T13:34:05;26.40;79.60
16513;DHT22;8369;48.030;11.598;2022-08-18T13:36:34;26.30;79.90
16513;DHT22;8369;48.030;11.598;2022-08-18T13:39:23;26.30;80.30
16513;DHT22;8369;48.030;11.598;2022-08-18T13:41:52;26.20;81.30
16513;DHT22;8369;48.030;11.598;2022-08-18T13:44:21;26.10;81.80
16513;DHT22;8369;48.030;11.598;2022-08-18T13:46:56;26.20;81.90
16513;DHT22;8369;48.030;11.598;2022-08-18T13:49:26;26.10;82.50
16513;DHT22;8369;48.030;11.598;2022-08-18T13:51:55;26.10;82.80
16513;DHT22;8369;48.030;11.598;2022-08-18T13:54:34;26.10;83.40
16513;DHT22;8369;48.030;11.598;2022-08-18T13:57:03;26.10;83.40
16513;DHT22;8369;48.030;11.598;2022-08-18T13:59:29;26.00;83.60
16513;DHT22;8369;48.030;11.598;2022-08-18T14:02:05;26.00;84.10
16513;DHT22;8369;48.030;11.598;2022-08-18T14:04:34;26.00;84.10
16513;DHT22;8369;48.030;11.598;2022-08-18T14:07:05;26.00;83.70
16513;DHT22;8369;48.030;11.598;2022-08-18T14:09:31;26.10;83.60
16513;DHT22;8369;48.030;11.598;2022-08-18T14:11:58;26.10;83.60
16513;DHT22;8369;48.030;11.598;2022-08-18T14:14:24;26.10;82.50
16513;DHT22;8369;48.030;11.598;2022-08-18T14:16:50;26.10;82.50
16513;DHT22;8369;48.030;11.598;2022-08-18T14:19:16;26.10;83.00
16513;DHT22;8369;48.030;11.598;2022-08-18T14:22:00;26.10;83.30
16513;DHT22;8369;48.030;11.598;2022-08-18T14:24:44;26.10;83.40
16513;DHT22;8369;48.030;11.598;2022-08-18T14:27:40;26.10;83.40
16513;DHT22;8369;48.030;11.598;2022-08-18T14:30:11;26.10;83.40
16513;DHT22;8369;48.030;11.598;2022-08-18T14:32:39;26.10;83.60
16513;DHT22;8369;48.030;11.598;2022-08-18T14:35:13;26.10;83.90
16513;DHT22;8369;48.030;11.598;2022-08-18T14:37:40;26.10;84.20
16513;DHT22;8369;48.030;11.598;2022-08-18T14:40:08;26.00;84.10
16513;DHT22;8369;48.030;11.598;2022-08-18T14:42:37;26.00;84.40
16513;DHT22;8369;48.030;11.598;2022-08-18T14:45:11;26.00;84.40
16513;DHT22;8369;48.030;11.598;2022-08-18T14:47:45;26.00;85.30
16513;DHT22;8369;48.030;11.598;2022-08-18T14:50:11;26.00;85.10
16513;DHT22;8369;48.030;11.598;2022-08-18T14:52:41;26.10;84.80
16513;DHT22;8369;48.030;11.598;2022-08-18T14:55:10;26.10;85.40
16513;DHT22;8369;48.030;11.598;2022-08-18T14:57:37;26.00;85.60
16513;DHT22;8369;48.030;11.598;2022-08-18T15:00:13;26.00;85.70
16513;DHT22;8369;48.030;11.598;2022-08-18T15:02:43;26.10;86.20
16513;DHT22;8369;48.030;11.598;2022-08-18T15:05:10;26.00;85.70
16513;DHT22;8369;48.030;11.598;2022-08-18T15:07:51;26.00;85.40
16513;DHT22;8369;48.030;11.598;2022-08-18T15:10:18;26.00;85.70
16513;DHT22;8369;48.030;11.598;2022-08-18T15:12:44;26.00;85.70
16513;DHT22;8369;48.030;11.598;2022-08-18T15:15:17;26.00;85.70
16513;DHT22;8369;48.030;11.598;2022-08-18T15:17:46;26.00;85.90
16513;DHT22;8369;48.030;11.598;2022-08-18T15:20:16;26.00;86.20
16513;DHT22;8369;48.030;11.598;2022-08-18T15:22:44;26.00;86.30
16513;DHT22;8369;48.030;11.598;2022-08-18T15:25:29;26.00;87.10
16513;DHT22;8369;48.030;11.598;2022-08-18T15:28:33;26.00;87.70
16513;DHT22;8369;48.030;11.598;2022-08-18T15:31:01;26.10;88.00
16513;DHT22;8369;48.030;11.598;2022-08-18T15:33:27;26.10;90.40
16513;DHT22;8369;48.030;11.598;2022-08-18T15:35:53;26.00;88.90
16513;DHT22;8369;48.030;11.598;2022-08-18T15:38:23;26.00;90.60
16513;DHT22;8369;48.030;11.598;2022-08-18T15:40:55;26.00;89.50
16513;DHT22;8369;48.030;11.598;2022-08-18T15:43:28;26.00;89.40
16513;DHT22;8369;48.030;11.598;2022-08-18T15:45:55;25.90;89.40
16513;DHT22;8369;48.030;11.598;2022-08-18T15:48:23;25.90;88.90
16513;DHT22;8369;48.030;11.598;2022-08-18T15:50:51;25.90;88.50
16513;DHT22;8369;48.030;11.598;2022-08-18T15:53:22;25.90;88.30
16513;DHT22;8369;48.030;11.598;2022-08-18T15:55:50;25.80;88.00
16513;DHT22;8369;48.030;11.598;2022-08-18T15:58:19;25.80;87.90
16513;DHT22;8369;48.030;11.598;2022-08-18T16:00:46;25.80;87.70
16513;DHT22;8369;48.030;11.598;2022-08-18T16:03:14;25.70;87.70
16513;DHT22;8369;48.030;11.598;2022-08-18T16:05:53;25.70;87.90
16513;DHT22;8369;48.030;11.598;2022-08-18T16:08:23;25.60;87.70
16513;DHT22;8369;48.030;11.598;2022-08-18T16:10:51;25.60;89.50
16513;DHT22;8369;48.030;11.598;2022-08-18T16:13:17;25.50;89.50
16513;DHT22;8369;48.030;11.598;2022-08-18T16:15:44;25.50;90.50
16513;DHT22;8369;48.030;11.598;2022-08-18T16:18:17;25.40;91.40
16513;DHT22;8369;48.030;11.598;2022-08-18T16:20:46;25.40;91.70
16513;DHT22;8369;48.030;11.598;2022-08-18T16:23:13;25.40;92.60
16513;DHT22;8369;48.030;11.598;2022-08-18T16:25:42;25.40;92.70
16513;DHT22;8369;48.030;11.598;2022-08-18T16:28:09;25.30;92.40
16513;DHT22;8369;48.030;11.598;2022-08-18T16:30:40;25.30;92.10
16513;DHT22;8369;48.030;11.598;2022-08-18T16:33:13;25.30;91.60
16513;DHT22;8369;48.030;11.598;2022-08-18T16:35:39;25.30;91.50
16513;DHT22;8369;48.030;11.598;2022-08-18T16:38:07;25.30;91.70
16513;DHT22;8369;48.030;11.598;2022-08-18T16:40:37;25.20;91.40
16513;DHT22;8369;48.030;11.598;2022-08-18T16:43:05;25.30;91.30
16513;DHT22;8369;48.030;11.598;2022-08-18T16:45:32;25.30;91.00
16513;DHT22;8369;48.030;11.598;2022-08-18T16:48:00;25.20;90.90
16513;DHT22;8369;48.030;11.598;2022-08-18T16:50:27;25.20;90.90
16513;DHT22;8369;48.030;11.598;2022-08-18T16:52:54;25.20;90.80
16513;DHT22;8369;48.030;11.598;2022-08-18T16:55:20;25.20;91.20
16513;DHT22;8369;48.030;11.598;2022-08-18T16:57:45;25.20;91.00
16513;DHT22;8369;48.030;11.598;2022-08-18T17:00:31;25.20;91.00
16513;DHT22;8369;48.030;11.598;2022-08-18T17:03:17;25.10;91.20
16513;DHT22;8369;48.030;11.598;2022-08-18T17:06:15;25.10;91.10
16513;DHT22;8369;48.030;11.598;2022-08-18T17:08:43;25.10;91.30
16513;DHT22;8369;48.030;11.598;2022-08-18T17:11:12;25.10;91.20
16513;DHT22;8369;48.030;11.598;2022-08-18T17:13:39;25.00;91.60
16513;DHT22;8369;48.030;11.598;2022-08-18T17:16:06;25.00;92.20
16513;DHT22;8369;48.030;11.598;2022-08-18T17:18:35;25.00;92.50
16513;DHT22;8369;48.030;11.598;2022-08-18T17:21:16;25.00;92.50
16513;DHT22;8369;48.030;11.598;2022-08-18T17:23:46;25.00;95.00
16513;DHT22;8369;48.030;11.598;2022-08-18T17:26:21;25.00;95.00
16513;DHT22;8369;48.030;11.598;2022-08-18T17:29:00;24.90;97.50
16513;DHT22;8369;48.030;11.598;2022-08-18T17:31:27;24.80;96.70
16513;DHT22;8369;48.030;11.598;2022-08-18T17:34:04;24.70;97.30
16513;DHT22;8369;48.030;11.598;2022-08-18T17:36:41;24.50;98.10
16513;DHT22;8369;48.030;11.598;2022-08-18T17:39:11;24.40;97.80
16513;DHT22;8369;48.030;11.598;2022-08-18T17:41:39;24.30;97.60
16513;DHT22;8369;48.030;11.598;2022-08-18T17:44:28;24.10;97.30
16513;DHT22;8369;48.030;11.598;2022-08-18T17:46:57;23.90;97.40
16513;DHT22;8369;48.030;11.598;2022-08-18T17:49:48;23.80;97.70
16513;DHT22;8369;48.030;11.598;2022-08-18T17:52:40;23.60;98.50
16513;DHT22;8369;48.030;11.598;2022-08-18T17:55:20;23.40;99.00
16513;DHT22;8369;48.030;11.598;2022-08-18T17:58:01;23.30;99.00
16513;DHT22;8369;48.030;11.598;2022-08-18T18:00:30;23.20;99.60
16513;DHT22;8369;48.030;11.598;2022-08-18T18:02:58;23.20;99.90
16513;DHT22;8369;48.030;11.598;2022-08-18T18:05:34;23.10;99.90
16513;DHT22;8369;48.030;11.598;2022-08-18T18:08:01;23.00;99.90
16513;DHT22;8369;48.030;11.598;2022-08-18T18:10:42;22.90;99.90
16513;DHT22;8369;48.030;11.598;2022-08-18T18:15:45;22.70;99.90
16513;DHT22;8369;48.030;11.598;2022-08-18T18:18:33;22.60;99.90
16513;DHT22;8369;48.030;11.598;2022-08-18T18:21:20;22.50;99.90
16513;DHT22;8369;48.030;11.598;2022-08-18T18:23:53;22.40;99.90
16513;DHT22;8369;48.030;11.598;2022-08-18T18:26:26;22.40;99.90
16513;DHT22;8369;48.030;11.598;2022-08-18T18:29:20;22.30;99.90
16513;DHT22;8369;48.030;11.598;2022-08-18T18:31:54;22.30;99.90
16513;DHT22;8369;48.030;11.598;2022-08-18T18:34:36;22.30;99.90
16513;DHT22;8369;48.030;11.598;2022-08-18T18:37:22;22.20;99.90
16513;DHT22;8369;48.030;11.598;2022-08-18T18:40:04;22.10;99.90
16513;DHT22;8369;48.030;11.598;2022-08-18T18:42:33;22.10;99.90
16513;DHT22;8369;48.030;11.598;2022-08-18T18:45:03;22.10;99.90
16513;DHT22;8369;48.030;11.598;2022-08-18T18:50:14;22.00;99.90